createdAt,value
2018-12-01T00:00:34.616Z,21.63
2018-12-01T00:08:55.701Z,20.23
2018-12-01T00:17:16.759Z,21.70
2018-12-01T00:25:37.895Z,18.70
2018-12-01T00:33:58.968Z,20.83
2018-12-01T00:42:20.023Z,20.50
2018-12-01T00:50:41.092Z,20.40
2018-12-01T00:59:02.175Z,20.10
2018-12-01T01:07:23.343Z,21.30
2018-12-01T01:15:44.400Z,21.20
2018-12-01T01:24:05.459Z,19.30
2018-12-01T01:32:26.527Z,22.43
2018-12-01T01:40:52.144Z,18.73
2018-12-01T01:49:13.271Z,17.93
2018-12-01T01:57:40.676Z,20.23
2018-12-01T02:06:07.888Z,20.73
2018-12-01T02:14:35.056Z,26.03
2018-12-01T02:23:02.268Z,20.67
2018-12-01T02:31:29.449Z,20.60
2018-12-01T02:39:56.855Z,21.80
2018-12-01T02:48:24.048Z,22.60
2018-12-01T02:56:51.344Z,27.60
2018-12-01T03:05:18.797Z,23.13
2018-12-01T03:13:46.034Z,25.53
2018-12-01T03:22:13.371Z,23.67
2018-12-01T03:30:40.530Z,25.40
2018-12-01T03:39:07.775Z,26.83
2018-12-01T03:47:34.991Z,25.07
2018-12-01T03:56:02.211Z,25.90
2018-12-01T04:04:29.413Z,25.80
2018-12-01T04:12:56.683Z,25.53
2018-12-01T04:21:23.907Z,27.57
2018-12-01T04:29:51.211Z,31.60
2018-12-01T04:38:18.619Z,30.60
2018-12-01T04:46:46.103Z,30.47
2018-12-01T04:55:13.416Z,27.27
2018-12-01T05:03:40.640Z,27.23
2018-12-01T05:12:07.855Z,29.77
2018-12-01T05:20:35.112Z,27.60
2018-12-01T05:29:02.352Z,28.00
2018-12-01T05:37:29.622Z,26.80
2018-12-01T05:45:56.951Z,27.27
2018-12-01T05:54:24.224Z,27.20
2018-12-01T06:02:51.651Z,28.33
2018-12-01T06:11:18.972Z,29.80
2018-12-01T06:19:46.299Z,25.67
2018-12-01T06:28:13.596Z,26.17
2018-12-01T06:36:40.791Z,29.00
2018-12-01T06:45:08.075Z,31.27
2018-12-01T06:53:35.259Z,28.93
2018-12-01T07:02:02.589Z,26.13
2018-12-01T07:10:30.042Z,25.93
2018-12-01T07:18:57.251Z,29.30
2018-12-01T07:27:24.569Z,27.73
2018-12-01T07:35:51.852Z,25.77
2018-12-01T07:44:19.069Z,25.20
2018-12-01T07:52:46.543Z,24.73
2018-12-01T08:01:13.730Z,25.23
2018-12-01T08:09:41.012Z,24.93
2018-12-01T08:18:08.203Z,25.27
2018-12-01T08:26:35.383Z,27.47
2018-12-01T08:35:02.530Z,35.13
2018-12-01T08:43:29.786Z,27.67
2018-12-01T08:51:57.070Z,43.47
2018-12-01T09:00:24.391Z,29.97
2018-12-01T09:08:51.824Z,29.10
2018-12-01T09:17:19.071Z,31.57
2018-12-01T09:25:46.350Z,33.83
2018-12-01T09:34:13.580Z,25.87
2018-12-01T09:42:41.039Z,25.03
2018-12-01T09:51:02.111Z,21.60
2018-12-01T09:59:23.243Z,21.63
2018-12-01T10:07:44.324Z,12.93
2018-12-01T10:16:05.440Z,13.87
2018-12-01T10:24:26.608Z,12.10
2018-12-01T10:32:47.750Z,9.20
2018-12-01T10:41:08.815Z,6.87
2018-12-01T10:49:29.909Z,7.00
2018-12-01T10:57:51.079Z,19.97
2018-12-01T11:06:12.167Z,7.60
2018-12-01T11:14:33.279Z,6.47
2018-12-01T11:22:57.961Z,5.23
2018-12-01T11:31:15.535Z,7.00
2018-12-01T11:39:36.759Z,7.67
2018-12-01T11:47:57.856Z,7.93
2018-12-01T11:56:19.034Z,10.67
2018-12-01T12:04:40.184Z,8.53
2018-12-01T12:13:01.347Z,9.20
2018-12-01T12:21:22.427Z,6.97
2018-12-01T12:29:43.543Z,7.43
2018-12-01T12:38:04.672Z,7.00
2018-12-01T12:46:25.780Z,6.20
2018-12-01T12:54:46.904Z,9.17
2018-12-01T13:03:08.098Z,6.33
2018-12-01T13:11:29.281Z,8.13
2018-12-01T13:19:50.426Z,9.00
2018-12-01T13:28:11.572Z,5.43
2018-12-01T13:36:32.843Z,4.10
2018-12-01T13:44:54.069Z,4.30
2018-12-01T13:53:15.299Z,4.77
2018-12-01T14:01:36.443Z,4.73
2018-12-01T14:09:57.601Z,4.63
2018-12-01T14:18:18.814Z,4.87
2018-12-01T14:26:40.109Z,4.30
2018-12-01T14:35:01.204Z,5.90
2018-12-01T14:43:22.350Z,6.00
2018-12-01T14:51:43.562Z,5.50
2018-12-01T15:00:04.745Z,7.00
2018-12-01T15:08:25.896Z,14.00
2018-12-01T15:16:47.028Z,8.80
2018-12-01T15:25:08.296Z,9.37
2018-12-01T15:33:29.439Z,8.10
2018-12-01T15:41:50.572Z,10.17
2018-12-01T15:50:11.780Z,8.90
2018-12-01T15:58:32.964Z,7.97
2018-12-01T16:06:54.152Z,7.03
2018-12-01T16:15:15.368Z,11.27
2018-12-01T16:23:36.630Z,13.80
2018-12-01T16:31:57.787Z,11.17
2018-12-01T16:40:19.004Z,12.90
2018-12-01T16:48:40.099Z,10.77
2018-12-01T16:57:01.348Z,11.37
2018-12-01T17:05:22.497Z,12.07
2018-12-01T17:13:43.635Z,15.63
2018-12-01T17:22:04.787Z,14.90
2018-12-01T17:30:25.960Z,12.13
2018-12-01T17:38:47.125Z,16.07
2018-12-01T17:47:08.251Z,20.93
2018-12-01T17:55:29.405Z,23.63
2018-12-01T18:03:50.608Z,14.93
2018-12-01T18:12:11.679Z,24.30
2018-12-01T18:20:32.759Z,14.47
2018-12-01T18:28:53.850Z,16.67
2018-12-01T18:37:14.959Z,15.97
2018-12-01T18:45:36.081Z,14.30
2018-12-01T18:53:57.206Z,15.27
2018-12-01T19:02:18.370Z,13.60
2018-12-01T19:10:39.574Z,13.57
2018-12-01T19:19:00.707Z,17.60
2018-12-01T19:27:22.851Z,18.40
2018-12-01T19:35:44.107Z,16.20
2018-12-01T19:44:05.370Z,14.83
2018-12-01T19:52:26.491Z,13.30
2018-12-01T20:00:47.663Z,20.07
2018-12-01T20:09:08.940Z,16.20
2018-12-01T20:17:30.193Z,20.77
2018-12-01T20:25:51.429Z,24.63
2018-12-01T20:34:12.589Z,17.10
2018-12-01T20:42:33.788Z,15.80
2018-12-01T20:50:54.989Z,12.30
2018-12-01T20:59:16.344Z,14.57
2018-12-01T21:07:37.585Z,19.27
2018-12-01T21:15:58.819Z,19.43
2018-12-01T21:24:20.024Z,21.63
2018-12-01T21:32:41.258Z,25.03
2018-12-01T21:41:02.411Z,18.73
2018-12-01T21:49:24.467Z,17.17
2018-12-01T21:57:45.611Z,20.43
2018-12-01T22:06:06.876Z,19.03
2018-12-01T22:14:28.043Z,20.80
2018-12-01T22:22:49.153Z,17.80
2018-12-01T22:31:10.344Z,18.97
2018-12-01T22:39:31.508Z,19.43
2018-12-01T22:47:52.646Z,19.57
2018-12-01T22:56:13.872Z,19.30
2018-12-01T23:04:35.086Z,16.03
2018-12-01T23:12:56.376Z,14.30
2018-12-01T23:21:20.599Z,13.87
2018-12-01T23:29:38.694Z,16.53
2018-12-01T23:37:59.852Z,16.20
2018-12-01T23:46:21.000Z,16.67
2018-12-01T23:54:42.147Z,16.57
